Time;durP1;ratioP1;P1;durP2;ratioP2;P2;SDS_P1;SDS_P2;PMS_P1;PMS_P2;Temp;Humidity;BMP_temperature;BMP_pressure;BME280_temperature;BME280_humidity;BME280_pressure;Samples;Min_cycle;Max_cycle;Signal;HPM_P1;HPM_P2
2022/06/13 00:01:40;;;;;;;;;;;22.30;55.20;;;;;;485722;245;1174;-40
2022/06/13 00:03:41;;;;;;;;;;;22.40;55.30;;;;;;485533;245;1078;-40
2022/06/13 00:05:43;;;;;;;;;;;22.30;55.30;;;;;;485650;245;1098;-40
2022/06/13 00:07:44;;;;;;;;;;;22.30;55.30;;;;;;485507;245;2124;-40
2022/06/13 00:09:45;;;;;;;;;;;22.30;55.40;;;;;;485371;245;1137;-40
2022/06/13 00:11:47;;;;;;;;;;;22.30;55.30;;;;;;485374;245;1040;-40
2022/06/13 00:13:48;;;;;;;;;;;22.40;55.30;;;;;;485495;245;1069;-40
2022/06/13 00:15:49;;;;;;;;;;;22.40;55.20;;;;;;485444;245;1015;-40
2022/06/13 00:17:51;;;;;;;;;;;22.40;55.20;;;;;;485323;245;1003;-40
2022/06/13 00:19:52;;;;;;;;;;;22.40;55.20;;;;;;485785;245;1158;-40
2022/06/13 00:21:53;;;;;;;;;;;22.30;55.20;;;;;;485392;245;1235;-40
2022/06/13 00:23:55;;;;;;;;;;;22.40;55.20;;;;;;485847;245;1280;-39
2022/06/13 00:25:56;;;;;;;;;;;22.40;55.20;;;;;;485614;245;1240;-39
2022/06/13 00:27:57;;;;;;;;;;;22.40;55.20;;;;;;485380;245;2207;-41
2022/06/13 00:29:58;;;;;;;;;;;22.40;55.30;;;;;;485660;245;1248;-41
2022/06/13 00:32:00;;;;;;;;;;;22.30;55.30;;;;;;485298;245;1191;-40
2022/06/13 00:34:01;;;;;;;;;;;22.30;55.30;;;;;;485769;245;1108;-39
2022/06/13 00:36:02;;;;;;;;;;;22.40;55.20;;;;;;485328;245;1232;-40
2022/06/13 00:38:04;;;;;;;;;;;22.40;55.30;;;;;;485529;245;1271;-40
2022/06/13 00:40:05;;;;;;;;;;;22.40;55.20;;;;;;485389;245;1229;-40
2022/06/13 00:42:07;;;;;;;;;;;22.40;55.30;;;;;;485609;245;1227;-40
2022/06/13 00:44:08;;;;;;;;;;;22.40;55.30;;;;;;485814;245;1271;-40
2022/06/13 00:46:09;;;;;;;;;;;22.30;55.30;;;;;;485314;245;1196;-39
2022/06/13 00:48:11;;;;;;;;;;;22.30;55.30;;;;;;485380;245;2142;-40
2022/06/13 00:50:12;;;;;;;;;;;22.30;55.40;;;;;;485624;245;1236;-40
2022/06/13 00:52:13;;;;;;;;;;;22.30;55.40;;;;;;485328;245;1412;-40
2022/06/13 00:54:14;;;;;;;;;;;22.30;55.40;;;;;;485360;245;1335;-40
2022/06/13 00:56:16;;;;;;;;;;;22.30;55.30;;;;;;485347;245;1271;-40
2022/06/13 00:58:17;;;;;;;;;;;22.40;55.30;;;;;;485393;245;1269;-41
2022/06/13 01:00:19;;;;;;;;;;;22.30;55.40;;;;;;485334;245;1114;-40
2022/06/13 01:02:21;;;;;;;;;;;22.40;55.30;;;;;;485332;245;1182;-39
2022/06/13 01:04:22;;;;;;;;;;;22.40;55.20;;;;;;485711;245;1036;-40
2022/06/13 01:06:24;;;;;;;;;;;22.40;55.20;;;;;;485283;245;1221;-40
2022/06/13 01:08:25;;;;;;;;;;;22.30;55.30;;;;;;485308;245;2191;-40
2022/06/13 01:12:46;;;;;;;;;;;22.40;55.30;;;;;;485557;245;1278;-40
2022/06/13 01:14:47;;;;;;;;;;;22.30;55.30;;;;;;485452;245;1245;-40
2022/06/13 01:16:49;;;;;;;;;;;22.40;55.30;;;;;;485374;245;1223;-40
2022/06/13 01:18:50;;;;;;;;;;;22.30;55.20;;;;;;485355;245;1252;-41
2022/06/13 01:20:51;;;;;;;;;;;22.30;55.40;;;;;;485798;245;1243;-41
2022/06/13 01:22:52;;;;;;;;;;;22.40;55.40;;;;;;485289;245;1164;-41
2022/06/13 01:24:54;;;;;;;;;;;22.30;55.30;;;;;;485386;245;1593;-39
2022/06/13 01:26:57;;;;;;;;;;;22.30;55.30;;;;;;485276;245;2147;-40
2022/06/13 01:28:57;;;;;;;;;;;22.40;55.30;;;;;;485386;245;1499;-40
2022/06/13 01:30:58;;;;;;;;;;;22.40;55.20;;;;;;485671;245;1548;-40
2022/06/13 01:32:59;;;;;;;;;;;22.40;55.20;;;;;;485314;245;1189;-41
2022/06/13 01:35:01;;;;;;;;;;;22.40;55.20;;;;;;485844;245;1238;-39
2022/06/13 01:37:02;;;;;;;;;;;22.40;55.30;;;;;;485517;245;1312;-40
2022/06/13 01:39:03;;;;;;;;;;;22.40;55.20;;;;;;485733;245;1355;-40
2022/06/13 01:41:04;;;;;;;;;;;22.40;55.30;;;;;;485571;245;1268;-40
2022/06/13 01:43:06;;;;;;;;;;;22.40;55.30;;;;;;485376;245;1277;-40
2022/06/13 01:45:07;;;;;;;;;;;22.30;55.30;;;;;;485720;245;1244;-40
2022/06/13 01:47:09;;;;;;;;;;;22.30;55.40;;;;;;485323;245;2206;-41
2022/06/13 01:49:10;;;;;;;;;;;22.30;55.40;;;;;;485351;245;1336;-40
2022/06/13 01:51:11;;;;;;;;;;;22.30;55.50;;;;;;485521;245;1099;-40
2022/06/13 01:53:13;;;;;;;;;;;22.30;55.50;;;;;;485302;245;1190;-40
2022/06/13 01:55:14;;;;;;;;;;;22.30;55.40;;;;;;485622;245;1297;-39
2022/06/13 01:57:15;;;;;;;;;;;22.30;55.30;;;;;;485324;245;1506;-40
2022/06/13 01:59:16;;;;;;;;;;;22.40;55.40;;;;;;485324;245;1111;-40
2022/06/13 02:01:18;;;;;;;;;;;22.40;55.30;;;;;;485600;245;1303;-40
2022/06/13 02:03:19;;;;;;;;;;;22.30;55.30;;;;;;485419;245;1077;-39
2022/06/13 02:05:21;;;;;;;;;;;22.30;55.40;;;;;;485821;245;1299;-40
2022/06/13 02:07:22;;;;;;;;;;;22.30;55.40;;;;;;485355;245;2171;-40
2022/06/13 02:09:24;;;;;;;;;;;22.30;55.50;;;;;;485290;245;1074;-40
2022/06/13 02:11:25;;;;;;;;;;;22.30;55.40;;;;;;485239;246;2450;-40
2022/06/13 02:13:26;;;;;;;;;;;22.30;55.40;;;;;;485323;245;1066;-41
2022/06/13 02:15:28;;;;;;;;;;;22.40;55.40;;;;;;485815;245;958;-40
2022/06/13 02:17:29;;;;;;;;;;;22.30;55.30;;;;;;485392;245;1190;-40
2022/06/13 02:19:31;;;;;;;;;;;22.30;55.40;;;;;;485329;245;1248;-40
2022/06/13 02:21:32;;;;;;;;;;;22.40;55.30;;;;;;485403;245;2233;-40
2022/06/13 02:23:33;;;;;;;;;;;22.40;55.30;;;;;;485419;245;1191;-40
2022/06/13 02:25:35;;;;;;;;;;;22.40;55.40;;;;;;485799;245;1181;-40
2022/06/13 02:27:36;;;;;;;;;;;22.40;55.40;;;;;;485394;245;2139;-40
2022/06/13 02:29:37;;;;;;;;;;;22.40;55.30;;;;;;485685;245;1151;-40
2022/06/13 02:31:39;;;;;;;;;;;22.30;55.40;;;;;;485525;245;1320;-41
2022/06/13 02:33:40;;;;;;;;;;;22.30;55.40;;;;;;485552;245;1236;-39
2022/06/13 02:35:41;;;;;;;;;;;22.40;55.40;;;;;;485479;245;1270;-40
2022/06/13 02:37:43;;;;;;;;;;;22.30;55.40;;;;;;485607;245;1177;-40
2022/06/13 02:39:44;;;;;;;;;;;22.40;55.30;;;;;;485392;245;1112;-39
2022/06/13 02:41:46;;;;;;;;;;;22.40;55.30;;;;;;485461;245;1273;-40
2022/06/13 02:43:47;;;;;;;;;;;22.40;55.30;;;;;;485269;245;1264;-40
2022/06/13 02:45:48;;;;;;;;;;;22.40;55.30;;;;;;485750;245;1112;-40
2022/06/13 02:47:50;;;;;;;;;;;22.30;55.30;;;;;;485485;245;2124;-40
2022/06/13 02:49:51;;;;;;;;;;;22.30;55.30;;;;;;485575;245;1222;-39
2022/06/13 02:51:52;;;;;;;;;;;22.30;55.40;;;;;;485342;245;1265;-40
2022/06/13 02:53:54;;;;;;;;;;;22.30;55.40;;;;;;485426;245;1222;-40
2022/06/13 02:55:55;;;;;;;;;;;22.30;55.40;;;;;;485461;245;1154;-40
2022/06/13 02:57:56;;;;;;;;;;;22.30;55.40;;;;;;485712;245;1213;-40
2022/06/13 02:59:57;;;;;;;;;;;22.30;55.40;;;;;;485818;245;1221;-40
2022/06/13 03:01:59;;;;;;;;;;;22.30;55.40;;;;;;485289;245;1155;-39
2022/06/13 03:04:00;;;;;;;;;;;22.30;55.60;;;;;;485279;245;1081;-40
2022/06/13 03:06:01;;;;;;;;;;;22.30;55.60;;;;;;485418;245;1266;-40
2022/06/13 03:08:03;;;;;;;;;;;22.40;55.30;;;;;;485317;245;2212;-40
2022/06/13 03:10:04;;;;;;;;;;;22.40;55.30;;;;;;485656;245;1229;-39
2022/06/13 03:12:05;;;;;;;;;;;22.40;55.30;;;;;;485346;245;1267;-40
2022/06/13 03:14:07;;;;;;;;;;;22.40;55.30;;;;;;485709;245;1216;-40
2022/06/13 03:16:08;;;;;;;;;;;22.40;55.30;;;;;;485397;245;1260;-39
2022/06/13 03:18:09;;;;;;;;;;;22.40;55.30;;;;;;485346;245;1299;-40
2022/06/13 03:20:11;;;;;;;;;;;22.30;55.30;;;;;;485750;245;1221;-40
2022/06/13 03:22:12;;;;;;;;;;;22.30;55.40;;;;;;485438;241;1327;-39
2022/06/13 03:24:13;;;;;;;;;;;22.30;55.50;;;;;;485266;245;1144;-40
2022/06/13 03:26:15;;;;;;;;;;;22.30;55.40;;;;;;485480;245;1127;-39
2022/06/13 03:28:16;;;;;;;;;;;22.40;55.40;;;;;;485625;245;2105;-40
2022/06/13 03:30:17;;;;;;;;;;;22.30;55.40;;;;;;485812;245;1072;-40
2022/06/13 03:32:19;;;;;;;;;;;22.30;55.40;;;;;;485513;245;1224;-41
2022/06/13 03:34:20;;;;;;;;;;;22.30;55.30;;;;;;485351;245;1052;-40
2022/06/13 03:36:21;;;;;;;;;;;22.30;55.40;;;;;;485747;245;1177;-40
2022/06/13 03:38:23;;;;;;;;;;;22.40;55.30;;;;;;485676;245;1249;-40
2022/06/13 03:40:24;;;;;;;;;;;22.40;55.20;;;;;;485498;245;1022;-40
2022/06/13 03:42:25;;;;;;;;;;;22.40;55.20;;;;;;485396;245;1197;-39
2022/06/13 03:44:27;;;;;;;;;;;22.40;55.20;;;;;;485652;245;1066;-41
2022/06/13 03:46:28;;;;;;;;;;;22.40;55.30;;;;;;485563;245;1298;-41
2022/06/13 03:48:29;;;;;;;;;;;22.30;55.30;;;;;;485490;245;2124;-40
2022/06/13 03:50:31;;;;;;;;;;;22.30;55.30;;;;;;485283;245;1002;-40
2022/06/13 03:52:32;;;;;;;;;;;22.40;55.40;;;;;;485290;245;1186;-39
2022/06/13 03:54:34;;;;;;;;;;;22.40;55.40;;;;;;485432;245;1194;-40
2022/06/13 03:56:35;;;;;;;;;;;22.30;55.40;;;;;;485278;245;1344;-39
2022/06/13 03:58:36;;;;;;;;;;;22.40;55.30;;;;;;485352;245;1089;-40
2022/06/13 04:00:39;;;;;;;;;;;22.30;55.30;;;;;;485329;245;1183;-40
2022/06/13 04:02:39;;;;;;;;;;;22.40;55.40;;;;;;485221;245;2314;-40
2022/06/13 04:04:40;;;;;;;;;;;22.30;55.40;;;;;;485440;245;1153;-40
2022/06/13 04:06:42;;;;;;;;;;;22.40;55.30;;;;;;485257;245;1334;-40
2022/06/13 04:08:43;;;;;;;;;;;22.40;55.30;;;;;;485333;245;2246;-40
2022/06/13 04:10:45;;;;;;;;;;;22.40;55.30;;;;;;485359;245;1219;-39
2022/06/13 04:12:46;;;;;;;;;;;22.30;55.20;;;;;;485785;245;1182;-40
2022/06/13 04:14:47;;;;;;;;;;;22.40;55.40;;;;;;485605;245;1277;-40
2022/06/13 04:16:48;;;;;;;;;;;22.40;55.30;;;;;;485423;245;1345;-40
2022/06/13 04:18:50;;;;;;;;;;;22.30;55.30;;;;;;485760;245;1279;-40
2022/06/13 04:20:51;;;;;;;;;;;22.40;55.30;;;;;;485567;245;1188;-40
2022/06/13 04:22:52;;;;;;;;;;;22.30;55.30;;;;;;485369;245;1183;-40
2022/06/13 04:24:54;;;;;;;;;;;22.40;55.40;;;;;;485331;245;1222;-40
2022/06/13 04:26:55;;;;;;;;;;;22.30;55.40;;;;;;485338;245;1163;-40
2022/06/13 04:28:57;;;;;;;;;;;22.40;55.40;;;;;;485701;245;2191;-40
2022/06/13 04:30:58;;;;;;;;;;;22.40;55.40;;;;;;485400;245;1266;-40
2022/06/13 04:32:59;;;;;;;;;;;22.40;55.40;;;;;;485253;245;1181;-39
2022/06/13 04:35:01;;;;;;;;;;;22.40;55.30;;;;;;485746;245;1213;-40
2022/06/13 04:37:02;;;;;;;;;;;22.30;55.40;;;;;;485403;245;1163;-40
2022/06/13 04:39:03;;;;;;;;;;;22.30;55.40;;;;;;485513;245;1169;-40
2022/06/13 04:41:04;;;;;;;;;;;22.40;55.30;;;;;;485464;245;1068;-40
2022/06/13 04:43:06;;;;;;;;;;;22.40;55.40;;;;;;485390;245;1082;-40
2022/06/13 04:45:08;;;;;;;;;;;22.30;55.40;;;;;;485448;245;1292;-40
2022/06/13 04:47:09;;;;;;;;;;;22.30;55.50;;;;;;485327;245;1187;-40
2022/06/13 04:49:10;;;;;;;;;;;22.40;55.40;;;;;;485244;245;2131;-40
2022/06/13 04:51:12;;;;;;;;;;;22.40;55.40;;;;;;485336;245;1344;-39
2022/06/13 04:53:13;;;;;;;;;;;22.40;55.30;;;;;;485128;245;1191;-40
2022/06/13 04:55:14;;;;;;;;;;;22.40;55.30;;;;;;485187;245;1241;-40
2022/06/13 04:57:16;;;;;;;;;;;22.40;55.30;;;;;;485148;245;1348;-40
2022/06/13 04:59:17;;;;;;;;;;;22.40;55.30;;;;;;485202;245;1225;-40
2022/06/13 05:01:18;;;;;;;;;;;22.30;55.40;;;;;;485094;245;1227;-40
2022/06/13 05:03:20;;;;;;;;;;;22.40;55.40;;;;;;485208;245;1178;-40
2022/06/13 05:05:21;;;;;;;;;;;22.40;55.40;;;;;;485362;245;1439;-39
2022/06/13 05:07:22;;;;;;;;;;;22.40;55.40;;;;;;485556;245;1212;-40
2022/06/13 05:09:24;;;;;;;;;;;22.30;55.50;;;;;;485510;245;2199;-40
2022/06/13 05:11:25;;;;;;;;;;;22.30;55.50;;;;;;485436;245;1170;-40
2022/06/13 05:13:26;;;;;;;;;;;22.40;55.40;;;;;;485014;245;2322;-41
2022/06/13 05:15:28;;;;;;;;;;;22.40;55.40;;;;;;485143;245;1206;-40
2022/06/13 05:17:29;;;;;;;;;;;22.40;55.40;;;;;;485194;245;1301;-39
2022/06/13 05:19:31;;;;;;;;;;;22.40;55.30;;;;;;485517;245;1337;-40
2022/06/13 05:21:32;;;;;;;;;;;22.40;55.30;;;;;;485181;245;2040;-40
2022/06/13 05:23:33;;;;;;;;;;;22.40;55.40;;;;;;485099;245;1210;-40
2022/06/13 05:25:34;;;;;;;;;;;22.40;55.40;;;;;;484931;245;1236;-40
2022/06/13 05:27:36;;;;;;;;;;;22.30;55.40;;;;;;485236;245;1191;-39
2022/06/13 05:29:38;;;;;;;;;;;22.30;55.40;;;;;;485058;245;2204;-40
2022/06/13 05:31:39;;;;;;;;;;;22.40;55.40;;;;;;484944;245;1233;-40
2022/06/13 05:33:40;;;;;;;;;;;22.40;55.40;;;;;;485190;245;1522;-40
2022/06/13 05:35:43;;;;;;;;;;;22.30;55.40;;;;;;485026;245;1458;-40
2022/06/13 05:37:44;;;;;;;;;;;22.30;55.40;;;;;;485021;245;1886;-41
2022/06/13 05:39:45;;;;;;;;;;;22.40;55.40;;;;;;485001;245;1311;-40
2022/06/13 05:41:46;;;;;;;;;;;22.40;55.30;;;;;;484954;245;1126;-40
2022/06/13 05:43:47;;;;;;;;;;;22.40;55.40;;;;;;485133;245;1377;-40
2022/06/13 05:45:49;;;;;;;;;;;22.30;55.50;;;;;;484947;245;1204;-40
2022/06/13 05:47:50;;;;;;;;;;;22.40;55.40;;;;;;484899;245;1139;-41
2022/06/13 05:49:51;;;;;;;;;;;22.40;55.40;;;;;;484883;245;2194;-40
2022/06/13 05:51:53;;;;;;;;;;;22.30;55.50;;;;;;484973;245;1091;-40
2022/06/13 05:53:57;;;;;;;;;;;22.30;55.50;;;;;;485008;245;1050;-41
2022/06/13 05:55:56;;;;;;;;;;;22.30;55.50;;;;;;484780;245;2140;-40
2022/06/13 05:57:57;;;;;;;;;;;22.30;55.50;;;;;;485051;245;1372;-40
2022/06/13 05:59:58;;;;;;;;;;;22.40;55.50;;;;;;484957;245;1218;-40
2022/06/13 06:01:59;;;;;;;;;;;22.30;55.40;;;;;;484979;245;1215;-40
2022/06/13 06:04:01;;;;;;;;;;;22.30;55.40;;;;;;485184;245;1287;-40
2022/06/13 06:06:02;;;;;;;;;;;22.40;55.30;;;;;;484862;245;1380;-40
2022/06/13 06:08:03;;;;;;;;;;;22.40;55.40;;;;;;484989;245;1248;-40
2022/06/13 06:10:05;;;;;;;;;;;22.40;55.30;;;;;;484974;245;2198;-41
2022/06/13 06:12:06;;;;;;;;;;;22.30;55.40;;;;;;484870;245;1231;-40
2022/06/13 06:14:07;;;;;;;;;;;22.40;55.50;;;;;;484875;245;1339;-40
2022/06/13 06:16:09;;;;;;;;;;;22.30;55.50;;;;;;484780;245;1212;-40
2022/06/13 06:18:10;;;;;;;;;;;22.30;55.60;;;;;;484825;245;1057;-40
2022/06/13 06:20:12;;;;;;;;;;;22.30;55.60;;;;;;484799;245;1182;-39
2022/06/13 06:22:14;;;;;;;;;;;22.30;55.50;;;;;;484807;245;1145;-40
2022/06/13 06:24:15;;;;;;;;;;;22.30;55.50;;;;;;484585;245;1097;-40
2022/06/13 06:26:16;;;;;;;;;;;22.40;55.50;;;;;;484567;245;1284;-40
2022/06/13 06:28:18;;;;;;;;;;;22.30;55.60;;;;;;484670;245;1092;-39
2022/06/13 06:30:19;;;;;;;;;;;22.40;55.60;;;;;;483772;246;2363;-40
2022/06/13 06:32:20;;;;;;;;;;;22.40;55.50;;;;;;483663;246;1162;-40
2022/06/13 06:34:22;;;;;;;;;;;22.30;55.50;;;;;;483683;246;1162;-41
2022/06/13 06:36:23;;;;;;;;;;;22.30;55.60;;;;;;483860;246;1076;-39
2022/06/13 06:38:24;;;;;;;;;;;22.30;55.60;;;;;;483661;246;1123;-40
2022/06/13 06:40:26;;;;;;;;;;;22.30;55.60;;;;;;483616;246;1160;-40
2022/06/13 06:42:27;;;;;;;;;;;22.40;55.60;;;;;;483675;246;1202;-39
2022/06/13 06:44:28;;;;;;;;;;;22.40;55.60;;;;;;483765;246;1124;-39
2022/06/13 06:46:30;;;;;;;;;;;22.30;55.60;;;;;;483642;246;1249;-39
2022/06/13 06:48:31;;;;;;;;;;;22.40;55.70;;;;;;483720;246;1207;-39
2022/06/13 06:50:32;;;;;;;;;;;22.40;55.70;;;;;;483626;246;2183;-40
2022/06/13 06:52:34;;;;;;;;;;;22.40;55.70;;;;;;483543;246;1206;-40
2022/06/13 07:01:33;;;;;;;;;;;22.40;55.70;;;;;;484393;245;1195;-41
2022/06/13 07:03:35;;;;;;;;;;;22.30;55.70;;;;;;485063;245;1163;-42
2022/06/13 07:05:36;;;;;;;;;;;22.30;55.80;;;;;;485293;245;1172;-42
2022/06/13 07:07:37;;;;;;;;;;;22.40;55.80;;;;;;484578;245;1262;-43
2022/06/13 07:09:39;;;;;;;;;;;22.40;55.80;;;;;;484647;245;2171;-41
2022/06/13 07:11:55;;;;;;;;;;;22.40;55.80;;;;;;483829;246;1075;-42
2022/06/13 07:13:56;;;;;;;;;;;22.30;55.80;;;;;;483842;246;1004;-42
2022/06/13 07:15:58;;;;;;;;;;;22.30;56.00;;;;;;484222;246;1127;-42
2022/06/13 07:17:59;;;;;;;;;;;22.40;55.90;;;;;;483798;246;1180;-42
2022/06/13 07:20:00;;;;;;;;;;;22.40;55.90;;;;;;483461;246;1353;-42
2022/06/13 07:22:02;;;;;;;;;;;22.40;55.90;;;;;;483618;246;1222;-43
2022/06/13 07:24:03;;;;;;;;;;;22.40;55.80;;;;;;483468;246;1196;-41
2022/06/13 07:26:04;;;;;;;;;;;22.40;55.70;;;;;;483438;246;1171;-42
2022/06/13 07:28:06;;;;;;;;;;;22.40;55.80;;;;;;483431;246;1233;-41
2022/06/13 07:30:07;;;;;;;;;;;22.40;55.90;;;;;;483386;246;2207;-42
2022/06/13 07:32:08;;;;;;;;;;;22.40;55.80;;;;;;483436;246;1449;-42
2022/06/13 07:34:10;;;;;;;;;;;22.40;55.90;;;;;;483262;246;1334;-42
2022/06/13 07:36:11;;;;;;;;;;;22.30;55.90;;;;;;483422;246;1250;-42
2022/06/13 07:38:18;;;;;;;;;;;22.30;55.90;;;;;;483337;246;1238;-43
2022/06/13 07:40:19;;;;;;;;;;;22.30;56.00;;;;;;483561;246;1063;-42
2022/06/13 07:42:21;;;;;;;;;;;22.40;56.00;;;;;;483394;246;1223;-42
2022/06/13 07:44:22;;;;;;;;;;;22.40;55.90;;;;;;483486;246;1131;-42
2022/06/13 07:46:23;;;;;;;;;;;22.40;55.80;;;;;;483572;246;1276;-42
2022/06/13 07:48:25;;;;;;;;;;;22.40;55.90;;;;;;483453;246;1116;-43
2022/06/13 07:50:26;;;;;;;;;;;22.40;55.90;;;;;;483515;246;2196;-42
2022/06/13 07:52:28;;;;;;;;;;;22.40;55.90;;;;;;483582;246;1363;-42
2022/06/13 07:54:29;;;;;;;;;;;22.40;56.00;;;;;;483574;246;2480;-42
2022/06/13 07:56:30;;;;;;;;;;;22.40;55.90;;;;;;483528;246;1196;-42
2022/06/13 07:58:31;;;;;;;;;;;22.40;55.90;;;;;;483661;246;1261;-42
2022/06/13 08:00:33;;;;;;;;;;;22.40;56.00;;;;;;483535;246;1250;-43
2022/06/13 08:02:34;;;;;;;;;;;22.40;56.00;;;;;;483475;246;1342;-42
2022/06/13 08:04:36;;;;;;;;;;;22.40;56.10;;;;;;483461;246;1274;-42
2022/06/13 08:06:38;;;;;;;;;;;22.40;56.10;;;;;;483449;246;2376;-42
2022/06/13 08:08:40;;;;;;;;;;;22.40;56.00;;;;;;483770;246;1084;-42
2022/06/13 08:10:41;;;;;;;;;;;22.40;56.10;;;;;;483520;246;2196;-41
2022/06/13 08:12:42;;;;;;;;;;;22.40;56.00;;;;;;483343;246;1274;-42
2022/06/13 08:14:45;;;;;;;;;;;22.40;56.00;;;;;;483318;246;1158;-42
2022/06/13 08:16:45;;;;;;;;;;;22.40;56.00;;;;;;483751;246;2008;-42
2022/06/13 08:18:46;;;;;;;;;;;22.40;56.00;;;;;;484309;246;1098;-43
2022/06/13 08:20:48;;;;;;;;;;;22.40;56.00;;;;;;484323;246;1123;-42
2022/06/13 08:22:49;;;;;;;;;;;22.40;56.10;;;;;;484350;246;1052;-42
2022/06/13 08:24:50;;;;;;;;;;;22.40;56.10;;;;;;484427;246;1019;-41
2022/06/13 08:26:52;;;;;;;;;;;22.40;56.10;;;;;;484027;246;1177;-39
2022/06/13 08:28:53;;;;;;;;;;;22.40;56.10;;;;;;483783;246;1007;-42
2022/06/13 08:30:56;;;;;;;;;;;22.40;56.10;;;;;;483847;246;2179;-42
2022/06/13 08:32:56;;;;;;;;;;;22.40;56.10;;;;;;483497;246;1362;-42
2022/06/13 08:34:57;;;;;;;;;;;22.30;56.10;;;;;;483687;246;1188;-42
2022/06/13 08:36:58;;;;;;;;;;;22.40;56.20;;;;;;483583;246;1346;-41
2022/06/13 08:39:00;;;;;;;;;;;22.40;56.10;;;;;;483585;246;1243;-42
2022/06/13 08:41:01;;;;;;;;;;;22.40;56.10;;;;;;483585;246;1640;-42
2022/06/13 08:43:03;;;;;;;;;;;22.40;56.00;;;;;;483688;246;1300;-43
2022/06/13 08:45:04;;;;;;;;;;;22.40;56.20;;;;;;484367;246;1201;-42
2022/06/13 08:47:06;;;;;;;;;;;22.40;56.00;;;;;;483781;246;1183;-43
2022/06/13 08:49:07;;;;;;;;;;;22.40;56.10;;;;;;483822;246;1297;-41
2022/06/13 08:51:08;;;;;;;;;;;22.40;56.10;;;;;;484195;246;2179;-42
2022/06/13 08:53:09;;;;;;;;;;;22.40;56.10;;;;;;484238;246;1262;-42
2022/06/13 08:55:11;;;;;;;;;;;22.40;56.00;;;;;;484301;246;1383;-42
2022/06/13 08:57:12;;;;;;;;;;;22.40;56.10;;;;;;484092;246;1233;-42
2022/06/13 08:59:26;;;;;;;;;;;22.40;56.10;;;;;;483673;246;1284;-42
2022/06/13 09:01:27;;;;;;;;;;;22.40;56.20;;;;;;483888;246;1232;-42
2022/06/13 09:03:28;;;;;;;;;;;22.40;56.10;;;;;;484288;246;1090;-41
2022/06/13 09:05:33;;;;;;;;;;;22.40;56.20;;;;;;484260;246;1273;-43
2022/06/13 09:07:31;;;;;;;;;;;22.40;56.20;;;;;;483497;246;1710;-42
2022/06/13 09:09:32;;;;;;;;;;;22.40;56.20;;;;;;483484;246;2176;-42
2022/06/13 09:11:34;;;;;;;;;;;22.40;56.20;;;;;;483555;246;1228;-39
2022/06/13 09:13:35;;;;;;;;;;;22.40;56.30;;;;;;483650;246;1192;-40
2022/06/13 09:15:36;;;;;;;;;;;22.40;56.20;;;;;;483678;246;1347;-42
2022/06/13 09:17:38;;;;;;;;;;;22.40;56.20;;;;;;483456;246;1254;-43
2022/06/13 09:19:39;;;;;;;;;;;22.40;56.10;;;;;;483484;246;1242;-42
2022/06/13 09:21:41;;;;;;;;;;;22.50;56.10;;;;;;483547;246;1386;-42
2022/06/13 09:23:42;;;;;;;;;;;22.50;56.00;;;;;;483591;246;1306;-41
2022/06/13 09:25:43;;;;;;;;;;;22.50;55.90;;;;;;483607;246;1339;-42
2022/06/13 09:27:45;;;;;;;;;;;22.50;56.10;;;;;;483747;246;1610;-42
2022/06/13 09:29:46;;;;;;;;;;;22.40;56.20;;;;;;483414;246;2116;-42
2022/06/13 09:31:48;;;;;;;;;;;22.50;56.20;;;;;;483271;246;1244;-42
2022/06/13 09:33:49;;;;;;;;;;;22.50;55.90;;;;;;483373;246;1107;-41
2022/06/13 09:35:50;;;;;;;;;;;22.50;56.00;;;;;;483348;246;1078;-42
2022/06/13 09:37:53;;;;;;;;;;;22.50;55.90;;;;;;483484;246;1214;-43
2022/06/13 09:39:53;;;;;;;;;;;22.40;56.00;;;;;;483794;246;1996;-42
2022/06/13 09:41:55;;;;;;;;;;;22.40;56.00;;;;;;483921;246;1170;-42
2022/06/13 09:43:56;;;;;;;;;;;22.50;56.10;;;;;;483577;246;1202;-43
2022/06/13 09:45:57;;;;;;;;;;;22.40;56.10;;;;;;483547;246;1273;-42
2022/06/13 09:47:59;;;;;;;;;;;22.50;56.10;;;;;;483645;246;1260;-42
2022/06/13 09:50:00;;;;;;;;;;;22.50;56.10;;;;;;483612;246;2182;-42
2022/06/13 09:52:01;;;;;;;;;;;22.40;56.00;;;;;;483699;246;1249;-42
2022/06/13 09:54:03;;;;;;;;;;;22.50;56.00;;;;;;484288;246;1056;-42
2022/06/13 09:56:05;;;;;;;;;;;22.50;56.00;;;;;;483491;246;1111;-42
2022/06/13 09:58:06;;;;;;;;;;;22.50;56.00;;;;;;483931;245;1275;-42
2022/06/13 10:00:07;;;;;;;;;;;22.60;55.90;;;;;;483747;246;1342;-42
2022/06/13 10:02:08;;;;;;;;;;;22.50;55.90;;;;;;483909;246;1105;-42
2022/06/13 10:04:09;;;;;;;;;;;22.50;56.00;;;;;;483941;246;1117;-42
2022/06/13 10:06:11;;;;;;;;;;;22.50;56.00;;;;;;483720;246;1142;-42
2022/06/13 10:08:12;;;;;;;;;;;22.50;55.90;;;;;;483744;246;1233;-42
2022/06/13 10:10:14;;;;;;;;;;;22.50;56.00;;;;;;483657;246;2195;-42
2022/06/13 10:12:16;;;;;;;;;;;22.50;56.00;;;;;;483836;246;1221;-43
2022/06/13 10:14:20;;;;;;;;;;;22.50;56.00;;;;;;483443;245;1257;-42
2022/06/13 10:16:18;;;;;;;;;;;22.40;56.00;;;;;;483415;245;2181;-42
2022/06/13 10:18:19;;;;;;;;;;;22.50;56.00;;;;;;483268;246;1163;-42
2022/06/13 10:20:21;;;;;;;;;;;22.50;56.00;;;;;;483544;246;1573;-42
2022/06/13 10:22:22;;;;;;;;;;;22.50;55.90;;;;;;483620;246;1184;-43
2022/06/13 10:24:24;;;;;;;;;;;22.40;56.00;;;;;;483514;246;1292;-42
2022/06/13 10:26:25;;;;;;;;;;;22.50;56.00;;;;;;484146;246;1211;-42
2022/06/13 10:28:26;;;;;;;;;;;22.40;56.00;;;;;;483902;246;1387;-42
2022/06/13 10:30:28;;;;;;;;;;;22.40;56.10;;;;;;484067;246;2190;-42
2022/06/13 10:32:29;;;;;;;;;;;22.40;56.00;;;;;;484027;246;1121;-42
2022/06/13 10:34:30;;;;;;;;;;;22.40;56.00;;;;;;483689;246;1360;-42
2022/06/13 10:36:31;;;;;;;;;;;22.40;56.10;;;;;;483998;246;1047;-42
2022/06/13 10:38:33;;;;;;;;;;;22.40;56.10;;;;;;484025;246;1671;-42
2022/06/13 10:40:34;;;;;;;;;;;22.40;56.10;;;;;;484047;246;1057;-43
2022/06/13 10:42:35;;;;;;;;;;;22.40;56.10;;;;;;483846;246;1150;-42
2022/06/13 10:44:37;;;;;;;;;;;22.40;56.10;;;;;;483433;246;1327;-42
2022/06/13 10:46:38;;;;;;;;;;;22.40;56.20;;;;;;483590;246;1206;-42
2022/06/13 10:48:40;;;;;;;;;;;22.40;56.20;;;;;;483604;246;1072;-42
2022/06/13 10:50:41;;;;;;;;;;;22.40;56.20;;;;;;483522;246;2193;-42
2022/06/13 10:52:43;;;;;;;;;;;22.30;56.20;;;;;;483185;246;1216;-42
2022/06/13 10:54:44;;;;;;;;;;;22.30;56.30;;;;;;483495;246;2180;-42
2022/06/13 10:56:45;;;;;;;;;;;22.30;56.20;;;;;;484318;246;1082;-43
2022/06/13 10:58:46;;;;;;;;;;;22.30;56.20;;;;;;484041;246;1564;-41
2022/06/13 11:00:48;;;;;;;;;;;22.30;56.40;;;;;;483836;246;1104;-42
2022/06/13 11:02:49;;;;;;;;;;;22.30;56.30;;;;;;484205;246;1150;-42
2022/06/13 11:04:50;;;;;;;;;;;22.30;56.40;;;;;;483319;246;1182;-43
2022/06/13 11:06:53;;;;;;;;;;;22.30;56.40;;;;;;483088;246;1381;-42
2022/06/13 11:08:53;;;;;;;;;;;22.30;56.40;;;;;;483360;246;1920;-42
2022/06/13 11:10:54;;;;;;;;;;;22.30;56.30;;;;;;483501;246;2145;-42
2022/06/13 11:12:56;;;;;;;;;;;22.30;56.30;;;;;;483444;246;1223;-42
2022/06/13 11:24:19;;;;;;;;;;;22.40;56.20;;;;;;484563;244;1528;-41
2022/06/13 11:28:53;;;;;;;;;;;22.30;56.30;;;;;;466773;246;1220;-42
2022/06/13 11:30:54;;;;;;;;;;;22.30;56.20;;;;;;483239;245;2215;-42
2022/06/13 11:32:56;;;;;;;;;;;22.30;56.20;;;;;;483498;246;1267;-42
2022/06/13 11:34:57;;;;;;;;;;;22.30;56.20;;;;;;483554;246;1197;-42
2022/06/13 11:36:58;;;;;;;;;;;22.30;56.20;;;;;;483647;246;1434;-43
2022/06/13 11:39:00;;;;;;;;;;;22.30;56.30;;;;;;483627;246;1152;-42
2022/06/13 11:41:01;;;;;;;;;;;22.30;56.30;;;;;;483231;246;1255;-42
2022/06/13 11:43:03;;;;;;;;;;;22.30;56.20;;;;;;483252;246;1176;-42
2022/06/13 11:45:04;;;;;;;;;;;22.20;56.20;;;;;;483317;246;1303;-43
2022/06/13 11:47:05;;;;;;;;;;;22.30;56.30;;;;;;483422;246;1133;-43
2022/06/13 11:49:06;;;;;;;;;;;22.20;56.20;;;;;;483410;246;1230;-42
2022/06/13 11:51:08;;;;;;;;;;;22.20;56.30;;;;;;483424;246;2199;-42
2022/06/13 11:55:29;;;;;;;;;;;22.20;56.20;;;;;;483352;245;1250;-42
2022/06/13 11:57:30;;;;;;;;;;;22.20;56.30;;;;;;483431;246;1147;-42
2022/06/13 11:59:32;;;;;;;;;;;22.20;56.30;;;;;;483447;246;1234;-41
2022/06/13 12:01:34;;;;;;;;;;;22.20;56.30;;;;;;483292;246;1305;-42
2022/06/13 12:03:35;;;;;;;;;;;22.20;56.30;;;;;;483173;246;1814;-42
2022/06/13 12:05:36;;;;;;;;;;;22.20;56.20;;;;;;483157;246;1289;-42
2022/06/13 12:07:37;;;;;;;;;;;22.10;56.20;;;;;;483380;246;1179;-42
2022/06/13 12:09:40;;;;;;;;;;;22.20;56.20;;;;;;483282;246;1216;-43
2022/06/13 12:11:40;;;;;;;;;;;22.10;56.20;;;;;;483282;245;2145;-41
2022/06/13 12:13:41;;;;;;;;;;;22.20;56.30;;;;;;483387;246;1242;-42
2022/06/13 12:15:43;;;;;;;;;;;22.20;56.20;;;;;;483605;246;1248;-42
2022/06/13 12:17:44;;;;;;;;;;;22.20;56.20;;;;;;483811;246;1327;-43
2022/06/13 12:19:45;;;;;;;;;;;22.20;56.20;;;;;;484409;246;1092;-42
2022/06/13 12:21:47;;;;;;;;;;;22.10;56.20;;;;;;483907;246;1086;-42